createdAt,value
2019-04-23T00:04:05.842Z,13.23
2019-04-23T00:06:45.500Z,13.15
2019-04-23T00:09:13.713Z,13.10
2019-04-23T00:11:51.616Z,13.10
2019-04-23T00:14:15.537Z,13.23
2019-04-23T00:16:41.782Z,12.89
2019-04-23T00:19:22.892Z,12.82
2019-04-23T00:21:46.037Z,12.74
2019-04-23T00:27:35.572Z,12.65
2019-04-23T00:30:12.941Z,12.46
2019-04-23T00:32:30.318Z,12.33
2019-04-23T00:34:59.623Z,12.14
2019-04-23T00:37:31.563Z,12.24
2019-04-23T00:39:56.537Z,12.09
2019-04-23T00:42:40.459Z,11.95
2019-04-23T00:44:56.250Z,11.81
2019-04-23T00:50:12.727Z,11.62
2019-04-23T00:52:35.289Z,11.68
2019-04-23T00:55:19.069Z,11.52
2019-04-23T00:57:35.907Z,11.56
2019-04-23T01:00:11.452Z,11.52
2019-04-23T01:02:37.526Z,11.64
2019-04-23T01:07:38.563Z,11.40
2019-04-23T01:10:10.593Z,11.13
2019-04-23T01:15:14.168Z,11.30
2019-04-23T01:20:14.571Z,10.99
2019-04-23T01:22:46.433Z,10.88
2019-04-23T01:25:31.052Z,10.87
2019-04-23T01:28:13.732Z,10.97
2019-04-23T01:30:47.524Z,10.61
2019-04-23T01:33:34.071Z,10.71
2019-04-23T01:36:14.444Z,10.74
2019-04-23T01:38:35.128Z,10.59
2019-04-23T01:41:00.293Z,10.42
2019-04-23T01:43:33.655Z,10.55
2019-04-23T01:46:02.698Z,10.63
2019-04-23T01:48:34.254Z,10.75
2019-04-23T01:51:20.191Z,10.54
2019-04-23T01:56:04.875Z,10.71
2019-04-23T01:58:44.087Z,10.67
2019-04-23T02:01:30.040Z,10.63
2019-04-23T02:03:43.799Z,10.44
2019-04-23T02:06:13.598Z,10.38
2019-04-23T02:08:47.289Z,10.28
2019-04-23T02:11:11.516Z,10.35
2019-04-23T02:13:49.699Z,10.28
2019-04-23T02:16:19.274Z,10.10
2019-04-23T02:18:56.716Z,10.04
2019-04-23T02:21:33.424Z,10.26
2019-04-23T02:24:12.132Z,10.18
2019-04-23T02:26:43.487Z,10.16
2019-04-23T02:29:34.449Z,10.04
2019-04-23T02:31:58.260Z,9.97
2019-04-23T02:34:33.450Z,10.02
2019-04-23T02:36:55.014Z,10.04
2019-04-23T02:39:32.728Z,10.09
2019-04-23T02:42:07.768Z,10.38
2019-04-23T02:49:35.773Z,9.99
2019-04-23T02:51:59.259Z,9.97
2019-04-23T02:59:51.298Z,9.94
2019-04-23T03:02:15.551Z,10.06
2019-04-23T03:04:33.956Z,9.87
2019-04-23T03:09:39.868Z,9.72
2019-04-23T03:12:18.364Z,9.80
2019-04-23T03:14:43.684Z,9.47
2019-04-23T03:19:47.553Z,9.43
2019-04-23T03:22:35.438Z,9.52
2019-04-23T03:27:31.197Z,9.30
2019-04-23T03:33:44.091Z,9.30
2019-04-23T03:35:17.777Z,9.16
2019-04-23T03:42:42.798Z,9.48
2019-04-23T03:47:42.285Z,9.43
2019-04-23T03:50:14.691Z,9.67
2019-04-23T03:55:28.309Z,9.41
2019-04-23T03:57:54.106Z,9.56
2019-04-23T04:00:33.203Z,9.66
2019-04-23T04:05:36.047Z,9.60
2019-04-23T04:10:30.771Z,9.40
2019-04-23T04:12:56.859Z,9.37
2019-04-23T04:15:53.433Z,9.68
2019-04-23T04:18:13.924Z,9.53
2019-04-23T04:20:46.982Z,9.61
2019-04-23T04:25:37.484Z,9.52
2019-04-23T04:28:25.641Z,9.65
2019-04-23T04:30:38.843Z,9.66
2019-04-23T04:33:38.660Z,9.70
2019-04-23T04:35:58.417Z,9.80
2019-04-23T04:41:03.083Z,9.79
2019-04-23T04:46:12.776Z,9.70
2019-04-23T04:48:44.392Z,9.49
2019-04-23T04:53:54.058Z,9.48
2019-04-23T04:56:16.593Z,9.40
2019-04-23T04:58:47.542Z,9.64
2019-04-23T05:03:29.134Z,9.31
2019-04-23T05:06:18.586Z,9.17
2019-04-23T05:13:49.851Z,9.38
2019-04-23T05:16:27.564Z,9.00
2019-04-23T05:19:06.191Z,8.92
2019-04-23T05:21:26.821Z,9.02
2019-04-23T05:24:14.922Z,8.97
2019-04-23T05:26:26.564Z,9.01
2019-04-23T05:29:01.900Z,8.96
2019-04-23T05:34:02.572Z,9.07
2019-04-23T05:36:35.577Z,9.06
2019-04-23T05:39:12.151Z,9.04
2019-04-23T05:41:36.909Z,9.28
2019-04-23T05:44:10.400Z,9.21
2019-04-23T05:46:42.953Z,9.31
2019-04-23T05:54:12.536Z,9.50
2019-04-23T05:56:54.119Z,9.83
2019-04-23T05:59:11.633Z,9.95
2019-04-23T06:04:17.694Z,9.76
2019-04-23T06:06:55.818Z,9.66
2019-04-23T06:11:50.965Z,9.65
2019-04-23T06:16:49.662Z,9.92
2019-04-23T06:24:43.042Z,10.12
2019-04-23T06:27:00.988Z,10.20
2019-04-23T06:29:33.580Z,10.38
2019-04-23T06:32:02.778Z,10.39
2019-04-23T06:34:43.614Z,10.38
2019-04-23T06:37:09.247Z,10.32
2019-04-23T06:39:55.178Z,10.49
2019-04-23T06:42:23.123Z,10.41
2019-04-23T06:44:58.229Z,10.27
2019-04-23T06:47:29.354Z,9.95
2019-04-23T06:49:55.542Z,9.95
2019-04-23T06:52:21.566Z,10.05
2019-04-23T06:57:39.798Z,9.87
2019-04-23T07:00:04.331Z,10.13
2019-04-23T07:05:03.231Z,10.22
2019-04-23T07:07:42.593Z,10.24
2019-04-23T07:09:58.286Z,10.37
2019-04-23T07:12:36.407Z,10.26
2019-04-23T07:15:27.994Z,10.30
2019-04-23T07:17:34.587Z,10.41
2019-04-23T07:20:11.622Z,10.47
2019-04-23T07:22:35.546Z,10.35
2019-04-23T07:25:12.867Z,10.26
2019-04-23T07:27:37.861Z,10.40
2019-04-23T07:30:17.069Z,10.28
2019-04-23T07:32:49.650Z,10.33
2019-04-23T07:35:13.314Z,10.52
2019-04-23T07:37:48.859Z,10.44
2019-04-23T07:40:31.294Z,10.61
2019-04-23T07:43:03.393Z,10.42
2019-04-23T07:45:34.923Z,10.43
2019-04-23T07:50:42.426Z,10.81
2019-04-23T08:01:01.917Z,11.44
2019-04-23T08:03:31.283Z,11.68
2019-04-23T08:06:08.813Z,11.75
2019-04-23T08:08:30.335Z,11.49
2019-04-23T08:16:25.947Z,12.64
2019-04-23T08:18:52.381Z,12.54
2019-04-23T08:21:14.716Z,12.75
2019-04-23T08:24:01.913Z,12.68
2019-04-23T08:26:50.802Z,12.97
2019-04-23T08:29:24.976Z,12.70
2019-04-23T08:34:39.075Z,13.83
2019-04-23T08:39:39.831Z,13.67
2019-04-23T08:42:27.090Z,13.63
2019-04-23T08:44:44.960Z,14.13
2019-04-23T08:54:52.294Z,14.11
2019-04-23T08:57:14.482Z,14.05
2019-04-23T09:04:58.366Z,13.09
2019-04-23T09:07:20.566Z,12.92
2019-04-23T09:09:56.685Z,13.46
2019-04-23T09:12:23.712Z,12.93
2019-04-23T09:14:52.338Z,12.77
2019-04-23T09:17:27.789Z,12.78
2019-04-23T09:20:11.852Z,12.74
2019-04-23T09:22:28.354Z,12.69
2019-04-23T09:25:06.622Z,12.98
2019-04-23T09:27:39.749Z,13.26
2019-04-23T09:30:00.929Z,13.18
2019-04-23T09:35:08.654Z,13.23
2019-04-23T09:40:25.354Z,14.53
2019-04-23T09:45:48.808Z,14.02
2019-04-23T09:48:15.194Z,14.02
2019-04-23T09:50:52.340Z,14.58
2019-04-23T09:55:41.914Z,14.48
2019-04-23T10:00:46.840Z,14.46
2019-04-23T10:03:09.020Z,14.84
2019-04-23T10:05:48.275Z,14.69
2019-04-23T10:08:18.548Z,14.73
2019-04-23T10:10:38.412Z,14.15
2019-04-23T10:13:08.334Z,13.83
2019-04-23T10:15:42.508Z,14.18
2019-04-23T10:18:10.023Z,14.42
2019-04-23T10:20:40.655Z,14.38
2019-04-23T10:23:10.349Z,14.50
2019-04-23T10:25:43.665Z,14.11
2019-04-23T10:28:26.601Z,14.53
2019-04-23T10:30:56.590Z,14.32
2019-04-23T10:33:25.532Z,14.07
2019-04-23T10:36:02.212Z,14.05
2019-04-23T10:38:26.713Z,14.48
2019-04-23T10:40:58.023Z,14.77
2019-04-23T10:43:28.776Z,14.68
2019-04-23T10:46:31.057Z,14.65
2019-04-23T10:49:34.879Z,13.91
2019-04-23T10:52:09.636Z,13.66
2019-04-23T10:54:39.941Z,13.83
2019-04-23T10:56:59.557Z,13.68
2019-04-23T11:07:28.747Z,13.15
2019-04-23T11:17:45.962Z,12.87
2019-04-23T11:22:45.058Z,12.73
2019-04-23T11:25:28.074Z,12.95
2019-04-23T11:27:53.934Z,13.11
2019-04-23T11:33:09.112Z,13.27
2019-04-23T11:40:26.836Z,13.71
2019-04-23T11:43:06.160Z,13.55
2019-04-23T11:45:32.492Z,13.49
2019-04-23T11:48:24.426Z,13.48
2019-04-23T11:51:20.804Z,13.88
2019-04-23T11:55:49.322Z,13.70
2019-04-23T11:58:13.779Z,13.89
2019-04-23T12:00:51.254Z,13.66
2019-04-23T12:03:17.806Z,14.13
2019-04-23T12:06:25.136Z,14.31
2019-04-23T12:08:43.202Z,14.30
2019-04-23T12:14:24.264Z,14.10
2019-04-23T12:16:50.535Z,14.16
2019-04-23T12:21:43.971Z,14.66
2019-04-23T12:26:50.629Z,14.73
2019-04-23T12:29:18.621Z,14.80
2019-04-23T12:31:49.154Z,14.56
2019-04-23T12:34:25.695Z,14.27
2019-04-23T12:36:51.029Z,14.02
2019-04-23T12:39:27.111Z,14.03
2019-04-23T12:42:01.653Z,14.15
2019-04-23T12:44:38.987Z,14.45
2019-04-23T12:47:27.130Z,14.55
2019-04-23T12:50:13.484Z,14.33
2019-04-23T12:52:28.339Z,14.26
2019-04-23T12:55:10.183Z,13.88
2019-04-23T12:57:29.945Z,13.77
2019-04-23T12:59:58.397Z,13.64
2019-04-23T13:02:38.336Z,13.63
2019-04-23T13:05:00.268Z,13.67
2019-04-23T13:07:38.558Z,13.31
2019-04-23T13:12:47.399Z,13.20
2019-04-23T13:15:11.365Z,13.29
2019-04-23T13:22:48.903Z,13.65
2019-04-23T13:25:34.813Z,13.61
2019-04-23T13:30:46.086Z,13.47
2019-04-23T13:38:32.133Z,13.37
2019-04-23T13:48:31.243Z,14.15
2019-04-23T13:51:19.826Z,13.93
2019-04-23T13:56:09.075Z,13.43
2019-04-23T13:58:50.165Z,13.25
2019-04-23T14:01:23.499Z,13.27
2019-04-23T14:04:00.996Z,13.31
2019-04-23T14:08:55.194Z,13.67
2019-04-23T14:17:16.588Z,13.91
2019-04-23T14:19:34.183Z,14.17
2019-04-23T14:22:32.768Z,14.16
2019-04-23T14:27:37.126Z,13.90
2019-04-23T14:32:39.417Z,14.01
2019-04-23T14:38:12.905Z,14.22
2019-04-23T14:40:22.111Z,14.14
2019-04-23T14:42:56.104Z,14.48
2019-04-23T14:45:31.294Z,14.49
2019-04-23T14:48:02.807Z,14.52
2019-04-23T14:53:13.254Z,14.43
2019-04-23T14:58:11.225Z,14.62
2019-04-23T15:00:41.370Z,14.43
2019-04-23T15:05:45.974Z,14.34
2019-04-23T15:08:15.289Z,14.38
2019-04-23T15:13:14.729Z,14.77
2019-04-23T15:15:48.660Z,14.56
2019-04-23T15:18:33.095Z,14.43
2019-04-23T15:21:42.759Z,14.34
2019-04-23T15:24:06.971Z,14.28
2019-04-23T15:27:29.583Z,14.38
2019-04-23T15:28:43.666Z,14.45
2019-04-23T15:31:52.698Z,14.36
2019-04-23T15:34:09.315Z,14.33
2019-04-23T15:36:51.759Z,14.32
2019-04-23T15:42:08.856Z,14.06
2019-04-23T15:44:08.682Z,14.02
2019-04-23T15:46:40.900Z,13.86
2019-04-23T15:52:03.991Z,13.91
2019-04-23T15:54:35.610Z,14.05
2019-04-23T15:59:33.381Z,13.96
2019-04-23T16:01:42.038Z,13.97
2019-04-23T16:04:08.793Z,13.85
2019-04-23T16:06:38.498Z,13.87
2019-04-23T16:09:28.493Z,13.88
2019-04-23T16:12:01.467Z,13.85
2019-04-23T16:14:47.881Z,13.80
2019-04-23T16:17:17.462Z,13.79
2019-04-23T16:19:54.141Z,13.94
2019-04-23T16:22:30.347Z,13.99
2019-04-23T16:24:55.531Z,14.18
2019-04-23T16:27:16.932Z,14.19
2019-04-23T16:30:10.438Z,14.29
2019-04-23T16:35:06.196Z,13.96
2019-04-23T16:37:27.210Z,13.87
2019-04-23T16:40:03.500Z,13.86
2019-04-23T16:42:29.247Z,13.88
2019-04-23T16:47:29.732Z,13.84
2019-04-23T16:50:13.026Z,13.79
2019-04-23T16:52:32.867Z,13.65
2019-04-23T16:55:07.086Z,13.63
2019-04-23T17:02:34.202Z,13.52
2019-04-23T17:05:16.202Z,13.53
2019-04-23T17:07:41.822Z,13.59
2019-04-23T17:10:16.100Z,13.48
2019-04-23T17:12:46.284Z,13.56
2019-04-23T17:15:23.203Z,13.69
2019-04-23T17:17:37.955Z,13.46
2019-04-23T17:20:16.665Z,13.57
2019-04-23T17:22:46.869Z,13.59
2019-04-23T17:25:17.630Z,13.52
2019-04-23T17:27:48.852Z,13.52
2019-04-23T17:30:22.171Z,13.50
2019-04-23T17:33:02.488Z,13.41
2019-04-23T17:35:29.614Z,13.32
2019-04-23T17:38:00.697Z,13.32
2019-04-23T17:40:24.451Z,13.39
2019-04-23T17:43:02.989Z,13.50
2019-04-23T17:45:33.848Z,13.32
2019-04-23T17:48:13.231Z,13.19
2019-04-23T17:53:41.311Z,13.31
2019-04-23T18:01:11.038Z,13.18
2019-04-23T18:03:30.362Z,13.17
2019-04-23T18:08:27.739Z,13.14
2019-04-23T18:13:27.685Z,13.06
2019-04-23T18:16:09.584Z,13.09
2019-04-23T18:18:39.564Z,12.93
2019-04-23T18:24:08.973Z,12.91
2019-04-23T18:26:47.053Z,12.88
2019-04-23T18:29:27.768Z,12.81
2019-04-23T18:32:14.622Z,12.82
2019-04-23T18:34:53.818Z,12.89
2019-04-23T18:42:29.642Z,13.10
2019-04-23T18:45:00.334Z,13.00
2019-04-23T18:47:37.807Z,13.13
2019-04-23T18:50:02.631Z,13.07
2019-04-23T18:52:48.457Z,13.14
2019-04-23T18:54:53.990Z,13.17
2019-04-23T18:57:32.152Z,13.23
2019-04-23T19:00:09.079Z,13.31
2019-04-23T19:02:55.107Z,13.30
2019-04-23T19:05:30.915Z,13.28
2019-04-23T19:08:10.225Z,13.16
2019-04-23T19:10:30.743Z,13.20
2019-04-23T19:13:12.632Z,13.20
2019-04-23T19:15:39.622Z,13.19
2019-04-23T19:18:04.003Z,13.15
2019-04-23T19:23:16.372Z,13.11
2019-04-23T19:25:40.519Z,13.11
2019-04-23T19:28:29.061Z,13.12
2019-04-23T19:31:05.034Z,13.20
2019-04-23T19:33:41.906Z,13.22
2019-04-23T19:38:33.344Z,13.21
2019-04-23T19:43:45.833Z,13.17
2019-04-23T19:46:22.310Z,13.21
2019-04-23T19:48:42.256Z,13.24
2019-04-23T19:58:46.754Z,13.14
2019-04-23T20:06:13.770Z,13.09
2019-04-23T20:09:03.811Z,13.28
2019-04-23T20:11:09.158Z,13.06
2019-04-23T20:16:23.182Z,13.17
2019-04-23T20:21:04.050Z,12.89
2019-04-23T20:36:38.559Z,13.05
2019-04-23T20:39:12.251Z,12.87
2019-04-23T20:42:07.870Z,12.91
2019-04-23T20:44:35.889Z,12.95
2019-04-23T20:47:00.287Z,13.04
2019-04-23T20:49:31.923Z,13.00
2019-04-23T20:52:00.170Z,12.89
2019-04-23T20:54:39.632Z,13.00
2019-04-23T20:57:24.935Z,13.04
2019-04-23T20:59:50.008Z,12.88
2019-04-23T21:02:39.709Z,12.90
2019-04-23T21:05:10.210Z,12.84
2019-04-23T21:07:30.554Z,12.91
2019-04-23T21:10:08.894Z,12.88
2019-04-23T21:12:48.209Z,12.86
2019-04-23T21:15:08.689Z,12.78
2019-04-23T21:17:40.657Z,12.75
2019-04-23T21:20:08.465Z,12.85
2019-04-23T21:24:54.606Z,12.98
2019-04-23T21:30:03.460Z,13.04
2019-04-23T21:32:42.174Z,12.83
2019-04-23T21:35:17.726Z,12.79
2019-04-23T21:37:49.507Z,12.73
2019-04-23T21:42:58.919Z,12.60
2019-04-23T21:45:24.415Z,12.54
2019-04-23T21:48:02.996Z,12.42
2019-04-23T21:50:25.238Z,12.35
2019-04-23T21:52:56.093Z,12.64
2019-04-23T21:55:37.100Z,12.63
2019-04-23T21:57:59.607Z,12.71
2019-04-23T22:00:26.237Z,12.66
2019-04-23T22:03:02.584Z,12.64
2019-04-23T22:05:40.540Z,12.39
2019-04-23T22:07:58.146Z,12.38
2019-04-23T22:10:26.427Z,12.41
2019-04-23T22:13:11.916Z,12.40
2019-04-23T22:15:39.577Z,12.50
2019-04-23T22:20:39.815Z,12.41
2019-04-23T22:25:41.748Z,12.33
2019-04-23T22:27:58.260Z,12.12
2019-04-23T22:30:42.379Z,12.03
2019-04-23T22:35:45.060Z,12.19
2019-04-23T22:40:41.665Z,12.47
2019-04-23T22:43:14.719Z,12.43
2019-04-23T22:45:44.397Z,12.40
2019-04-23T22:48:11.844Z,11.90
2019-04-23T22:50:57.018Z,11.89
2019-04-23T22:55:49.697Z,11.79
2019-04-23T22:58:10.826Z,11.85
2019-04-23T23:01:14.701Z,11.94
2019-04-23T23:03:35.666Z,11.79
2019-04-23T23:06:10.687Z,11.74
2019-04-23T23:08:52.236Z,11.61
2019-04-23T23:11:02.311Z,11.56
2019-04-23T23:16:24.554Z,11.65
2019-04-23T23:18:50.015Z,11.57
2019-04-23T23:21:13.386Z,11.49
2019-04-23T23:23:39.510Z,11.60
2019-04-23T23:26:09.836Z,11.80
2019-04-23T23:28:40.990Z,11.78
2019-04-23T23:31:16.155Z,11.80
2019-04-23T23:36:16.024Z,11.55
2019-04-23T23:38:50.846Z,11.52
2019-04-23T23:44:05.985Z,12.00
2019-04-23T23:46:22.147Z,11.53
2019-04-23T23:48:41.973Z,11.52
2019-04-23T23:51:16.518Z,11.43
2019-04-23T23:54:00.405Z,11.34
2019-04-23T23:56:34.948Z,11.58
